createdAt,value
2022-08-17T00:00:12.038Z,18.86
2022-08-17T00:03:03.072Z,18.86
2022-08-17T00:05:33.584Z,18.87
2022-08-17T00:08:02.001Z,18.88
2022-08-17T00:10:30.352Z,18.88
2022-08-17T00:13:04.468Z,18.86
2022-08-17T00:15:32.319Z,18.84
2022-08-17T00:18:00.009Z,18.84
2022-08-17T00:20:30.486Z,18.84
2022-08-17T00:23:08.649Z,18.86
2022-08-17T00:25:36.768Z,18.86
2022-08-17T00:28:06.430Z,18.87
2022-08-17T00:30:53.085Z,18.86
2022-08-17T00:33:24.004Z,18.85
2022-08-17T00:35:53.182Z,18.84
2022-08-17T00:38:21.863Z,18.83
2022-08-17T00:40:55.629Z,18.82
2022-08-17T00:43:31.087Z,18.81
2022-08-17T00:46:00.690Z,18.79
2022-08-17T00:48:30.795Z,18.80
2022-08-17T00:51:04.056Z,18.78
2022-08-17T00:53:35.501Z,18.79
2022-08-17T00:56:07.858Z,18.78
2022-08-17T00:58:36.941Z,18.76
2022-08-17T01:01:06.332Z,18.75
2022-08-17T01:03:37.049Z,18.72
2022-08-17T01:06:08.340Z,18.70
2022-08-17T01:08:38.104Z,18.69
2022-08-17T01:11:07.648Z,18.67
2022-08-17T01:13:41.105Z,18.66
2022-08-17T01:16:16.640Z,18.65
2022-08-17T01:18:46.627Z,18.65
2022-08-17T01:21:22.293Z,18.65
2022-08-17T01:23:50.192Z,18.65
2022-08-17T01:26:18.903Z,18.64
2022-08-17T01:28:54.974Z,18.63
2022-08-17T01:31:27.753Z,18.62
2022-08-17T01:33:55.533Z,18.60
2022-08-17T01:36:23.338Z,18.59
2022-08-17T01:38:51.143Z,18.58
2022-08-17T01:41:20.561Z,18.58
2022-08-17T01:43:54.934Z,18.59
2022-08-17T01:46:26.608Z,18.62
2022-08-17T01:48:55.610Z,18.63
2022-08-17T01:51:24.723Z,18.63
2022-08-17T01:53:56.810Z,18.64
2022-08-17T01:56:26.226Z,18.64
2022-08-17T01:58:54.302Z,18.67
2022-08-17T02:01:25.816Z,18.69
2022-08-17T02:03:59.376Z,18.69
2022-08-17T02:06:30.615Z,18.69
2022-08-17T02:09:02.977Z,18.71
2022-08-17T02:11:34.253Z,18.72
2022-08-17T02:14:04.493Z,18.74
2022-08-17T02:16:37.549Z,18.75
2022-08-17T02:19:09.107Z,18.74
2022-08-17T02:21:38.364Z,18.74
2022-08-17T02:24:10.212Z,18.72
2022-08-17T02:26:38.201Z,18.69
2022-08-17T02:29:06.649Z,18.67
2022-08-17T02:31:34.931Z,18.66
2022-08-17T02:34:05.315Z,18.66
2022-08-17T02:36:35.015Z,18.67
2022-08-17T02:39:06.139Z,18.66
2022-08-17T02:41:34.034Z,18.65
2022-08-17T02:44:01.957Z,18.63
2022-08-17T02:46:31.369Z,18.61
2022-08-17T02:48:59.281Z,18.58
2022-08-17T02:51:27.411Z,18.55
2022-08-17T02:54:39.447Z,18.50
2022-08-17T02:56:43.653Z,18.45
2022-08-17T02:59:11.627Z,18.40
2022-08-17T03:01:39.755Z,18.38
2022-08-17T03:04:07.681Z,18.36
2022-08-17T03:06:36.720Z,18.35
2022-08-17T03:09:05.023Z,18.32
2022-08-17T03:11:32.811Z,18.30
2022-08-17T03:14:01.641Z,18.30
2022-08-17T03:16:29.417Z,18.31
2022-08-17T03:18:57.266Z,18.31
2022-08-17T03:21:25.037Z,18.33
2022-08-17T03:23:54.527Z,18.35
2022-08-17T03:26:22.663Z,18.36
2022-08-17T03:28:50.403Z,18.37
2022-08-17T03:31:18.222Z,18.36
2022-08-17T03:33:46.014Z,18.35
2022-08-17T03:36:14.229Z,18.31
2022-08-17T03:38:41.953Z,18.27
2022-08-17T03:41:10.824Z,18.22
2022-08-17T03:43:38.642Z,18.20
2022-08-17T03:46:27.900Z,18.17
2022-08-17T03:49:18.863Z,18.16
2022-08-17T03:52:05.021Z,18.15
2022-08-17T03:54:51.224Z,18.15
2022-08-17T03:57:19.349Z,18.16
2022-08-17T03:59:47.901Z,18.18
2022-08-17T04:02:21.108Z,18.20
2022-08-17T04:04:50.241Z,18.22
2022-08-17T04:07:19.026Z,18.22
2022-08-17T04:09:46.767Z,18.22
2022-08-17T04:12:16.760Z,18.24
2022-08-17T04:14:53.562Z,18.27
2022-08-17T04:17:25.371Z,18.30
2022-08-17T04:19:54.465Z,18.35
2022-08-17T04:22:30.894Z,18.39
2022-08-17T04:25:04.747Z,18.43
2022-08-17T04:27:31.602Z,18.44
2022-08-17T04:30:00.090Z,18.44
2022-08-17T04:33:03.409Z,18.43
2022-08-17T04:35:22.312Z,18.46
2022-08-17T04:37:51.031Z,18.50
2022-08-17T04:40:39.475Z,18.52
2022-08-17T04:43:12.832Z,18.56
2022-08-17T04:45:55.089Z,18.58
2022-08-17T04:48:29.967Z,18.59
2022-08-17T04:51:08.858Z,18.60
2022-08-17T04:53:36.792Z,18.63
2022-08-17T04:56:05.231Z,18.65
2022-08-17T04:58:33.255Z,18.69
2022-08-17T05:01:02.302Z,18.75
2022-08-17T05:03:31.280Z,18.81
2022-08-17T05:05:59.102Z,18.88
2022-08-17T05:08:27.259Z,18.96
2022-08-17T05:10:55.413Z,19.03
2022-08-17T05:13:26.627Z,19.10
2022-08-17T05:15:54.521Z,19.18
2022-08-17T05:18:22.671Z,19.25
2022-08-17T05:20:52.937Z,19.32
2022-08-17T05:23:23.306Z,19.37
2022-08-17T05:25:54.317Z,19.43
2022-08-17T05:28:27.408Z,19.50
2022-08-17T05:30:57.820Z,19.56
2022-08-17T05:33:28.571Z,19.63
2022-08-17T05:35:58.977Z,19.69
2022-08-17T05:38:28.622Z,19.74
2022-08-17T05:40:57.693Z,19.78
2022-08-17T05:43:27.842Z,19.84
2022-08-17T05:46:02.505Z,19.87
2022-08-17T05:48:35.832Z,19.91
2022-08-17T05:51:31.787Z,19.93
2022-08-17T05:54:23.117Z,19.95
2022-08-17T05:56:58.776Z,19.98
2022-08-17T05:59:34.475Z,20.01
2022-08-17T06:02:11.150Z,20.05
2022-08-17T06:04:55.008Z,20.11
2022-08-17T06:07:31.503Z,20.19
2022-08-17T06:10:08.659Z,20.26
2022-08-17T06:12:49.791Z,20.36
2022-08-17T06:15:29.994Z,20.43
2022-08-17T06:18:01.602Z,20.49
2022-08-17T06:20:37.911Z,20.53
2022-08-17T06:23:13.971Z,20.56
2022-08-17T06:25:47.574Z,20.60
2022-08-17T06:28:24.947Z,20.66
2022-08-17T06:31:00.607Z,20.75
2022-08-17T06:33:33.691Z,20.84
2022-08-17T06:36:10.791Z,20.94
2022-08-17T06:38:50.727Z,21.09
2022-08-17T06:41:28.513Z,21.29
2022-08-17T06:44:13.192Z,21.49
2022-08-17T06:47:08.237Z,21.64
2022-08-17T06:49:43.345Z,21.73
2022-08-17T06:52:45.946Z,21.83
2022-08-17T06:55:18.742Z,21.98
2022-08-17T06:57:51.899Z,22.07
2022-08-17T07:00:23.225Z,22.14
2022-08-17T07:03:02.510Z,22.18
2022-08-17T07:05:38.713Z,22.22
2022-08-17T07:08:17.838Z,22.27
2022-08-17T07:10:50.747Z,22.32
2022-08-17T07:13:28.773Z,22.36
2022-08-17T07:16:12.521Z,22.36
2022-08-17T07:18:40.762Z,22.35
2022-08-17T07:21:26.170Z,22.32
2022-08-17T07:24:29.907Z,22.32
2022-08-17T07:27:12.362Z,22.32
2022-08-17T07:29:45.602Z,22.29
2022-08-17T07:32:18.709Z,22.26
2022-08-17T07:35:15.290Z,22.24
2022-08-17T07:37:52.479Z,22.17
2022-08-17T07:40:28.299Z,22.10
2022-08-17T07:43:05.833Z,22.04
2022-08-17T07:45:53.424Z,22.01
2022-08-17T07:48:24.739Z,22.01
2022-08-17T07:50:53.292Z,22.00
2022-08-17T07:53:24.267Z,22.00
2022-08-17T07:55:53.400Z,21.93
2022-08-17T07:58:23.910Z,21.87
2022-08-17T08:01:08.003Z,21.85
2022-08-17T08:03:42.217Z,21.86
2022-08-17T08:06:21.591Z,21.92
2022-08-17T08:08:54.452Z,21.99
2022-08-17T08:11:31.954Z,22.06
2022-08-17T08:14:28.696Z,22.14
2022-08-17T08:16:59.598Z,22.22
2022-08-17T08:19:28.738Z,22.27
2022-08-17T08:22:04.883Z,22.34
2022-08-17T08:24:56.992Z,22.43
2022-08-17T08:27:37.803Z,22.50
2022-08-17T08:30:10.099Z,22.53
2022-08-17T08:32:53.361Z,22.52
2022-08-17T08:35:30.201Z,22.50
2022-08-17T08:38:07.063Z,22.48
2022-08-17T08:40:49.340Z,22.47
2022-08-17T08:43:26.838Z,22.47
2022-08-17T08:46:06.346Z,22.46
2022-08-17T08:49:06.515Z,22.47
2022-08-17T08:51:51.761Z,22.50
2022-08-17T08:54:34.007Z,22.54
2022-08-17T08:57:34.015Z,22.61
2022-08-17T09:00:12.159Z,22.64
2022-08-17T09:03:07.682Z,22.66
2022-08-17T09:05:52.732Z,22.66
2022-08-17T09:08:35.223Z,22.67
2022-08-17T09:11:10.045Z,22.69
2022-08-17T09:13:46.107Z,22.73
2022-08-17T09:16:29.173Z,22.77
2022-08-17T09:19:04.627Z,22.84
2022-08-17T09:21:47.757Z,22.94
2022-08-17T09:24:24.825Z,23.03
2022-08-17T09:26:58.405Z,23.14
2022-08-17T09:29:29.268Z,23.24
2022-08-17T09:32:02.829Z,23.31
2022-08-17T09:34:34.921Z,23.37
2022-08-17T09:37:16.713Z,23.43
2022-08-17T09:39:53.097Z,23.48
2022-08-17T09:42:29.577Z,23.56
2022-08-17T09:45:18.929Z,23.62
2022-08-17T09:47:53.530Z,23.70
2022-08-17T09:51:03.609Z,23.79
2022-08-17T09:53:14.588Z,23.91
2022-08-17T09:56:41.043Z,24.02
2022-08-17T09:59:38.169Z,24.14
2022-08-17T10:02:36.541Z,24.26
2022-08-17T10:05:12.879Z,24.35
2022-08-17T10:07:48.027Z,24.40
2022-08-17T10:10:24.228Z,24.46
2022-08-17T10:12:56.664Z,24.57
2022-08-17T10:15:38.607Z,24.67
2022-08-17T10:18:25.109Z,24.74
2022-08-17T10:21:24.778Z,24.75
2022-08-17T10:24:26.524Z,24.70
2022-08-17T10:26:57.825Z,24.61
2022-08-17T10:29:40.814Z,24.50
2022-08-17T10:32:27.608Z,24.42
2022-08-17T10:35:18.169Z,24.36
2022-08-17T10:37:59.893Z,24.31
2022-08-17T10:40:35.297Z,24.27
2022-08-17T10:43:20.614Z,24.19
2022-08-17T10:46:21.537Z,24.09
2022-08-17T10:48:43.227Z,24.01
2022-08-17T10:51:35.500Z,23.95
2022-08-17T10:54:03.995Z,23.86
2022-08-17T10:56:44.730Z,23.75
2022-08-17T10:59:50.429Z,23.70
2022-08-17T11:02:26.767Z,23.64
2022-08-17T11:05:23.340Z,23.60
2022-08-17T11:08:13.591Z,23.52
2022-08-17T11:10:57.265Z,23.42
2022-08-17T11:13:40.638Z,23.40
2022-08-17T11:16:30.276Z,23.42
2022-08-17T11:19:27.658Z,23.47
2022-08-17T11:22:48.223Z,23.53
2022-08-17T11:25:18.801Z,23.60
2022-08-17T11:27:52.850Z,23.66
2022-08-17T11:30:46.289Z,23.78
2022-08-17T11:33:53.301Z,23.97
2022-08-17T11:36:35.196Z,24.23
2022-08-17T11:39:16.818Z,24.52
2022-08-17T11:41:54.786Z,24.89
2022-08-17T11:44:36.952Z,25.26
2022-08-17T11:47:32.915Z,25.78
2022-08-17T11:50:41.801Z,26.20
2022-08-17T11:53:49.441Z,26.41
2022-08-17T11:56:33.867Z,26.50
2022-08-17T11:59:02.282Z,26.66
2022-08-17T12:01:51.936Z,26.69
2022-08-17T12:04:30.983Z,26.69
2022-08-17T12:07:06.227Z,26.69
2022-08-17T12:09:38.465Z,26.64
2022-08-17T12:12:14.425Z,26.54
2022-08-17T12:15:09.644Z,26.51
2022-08-17T12:17:41.107Z,26.59
2022-08-17T12:20:14.872Z,26.58
2022-08-17T12:22:55.712Z,26.51
2022-08-17T12:25:26.547Z,26.48
2022-08-17T12:28:05.097Z,26.43
2022-08-17T12:30:35.066Z,26.61
2022-08-17T12:33:10.960Z,26.91
2022-08-17T12:35:38.919Z,27.03
2022-08-17T12:38:30.360Z,27.01
2022-08-17T12:40:58.158Z,27.09
2022-08-17T12:43:30.516Z,27.15
2022-08-17T12:46:13.497Z,27.09
2022-08-17T12:48:59.234Z,27.06
2022-08-17T12:51:29.217Z,27.03
2022-08-17T12:53:57.427Z,27.05
2022-08-17T12:56:26.360Z,27.05
2022-08-17T12:58:54.969Z,27.04
2022-08-17T13:01:24.331Z,27.01
2022-08-17T13:03:56.619Z,27.01
2022-08-17T13:06:31.624Z,27.01
2022-08-17T13:09:10.162Z,26.98
2022-08-17T13:11:47.837Z,26.94
2022-08-17T13:14:17.848Z,26.92
2022-08-17T13:16:52.257Z,26.94
2022-08-17T13:19:39.882Z,27.04
2022-08-17T13:22:11.933Z,27.26
2022-08-17T13:24:53.687Z,27.49
2022-08-17T13:27:24.410Z,27.77
2022-08-17T13:29:53.250Z,28.02
2022-08-17T13:32:31.171Z,28.42
2022-08-17T13:35:29.512Z,28.88
2022-08-17T13:38:03.721Z,29.38
2022-08-17T13:40:39.146Z,29.65
2022-08-17T13:47:28.268Z,30.83
2022-08-17T13:49:56.111Z,30.73
2022-08-17T13:52:38.074Z,30.83
2022-08-17T13:55:17.118Z,31.09
2022-08-17T13:57:46.385Z,31.35
2022-08-17T14:00:30.017Z,31.57
2022-08-17T14:02:58.401Z,31.68
2022-08-17T14:05:27.075Z,31.82
2022-08-17T14:07:57.743Z,31.83
2022-08-17T14:10:26.062Z,32.09
2022-08-17T14:12:54.077Z,32.32
2022-08-17T14:15:24.379Z,32.47
2022-08-17T14:18:12.014Z,32.56
2022-08-17T14:20:39.996Z,32.50
2022-08-17T14:23:07.963Z,32.35
2022-08-17T14:25:35.832Z,32.29
2022-08-17T14:28:06.966Z,32.34
2022-08-17T14:30:35.007Z,32.49
2022-08-17T14:33:05.320Z,32.76
2022-08-17T14:35:34.648Z,32.98
2022-08-17T14:38:02.469Z,33.09
2022-08-17T14:40:30.806Z,33.14
2022-08-17T14:42:58.827Z,32.84
2022-08-17T14:45:30.073Z,32.78
2022-08-17T14:48:03.621Z,32.80
2022-08-17T14:50:31.917Z,32.95
2022-08-17T14:53:01.412Z,33.11
2022-08-17T14:55:30.543Z,33.18
2022-08-17T14:57:58.753Z,33.37
2022-08-17T15:00:27.886Z,33.53
2022-08-17T15:02:59.298Z,33.68
2022-08-17T15:05:30.753Z,33.88
2022-08-17T15:07:58.743Z,34.17
2022-08-17T15:10:28.033Z,34.29
2022-08-17T15:12:56.438Z,34.43
2022-08-17T15:15:24.931Z,34.47
2022-08-17T15:17:52.868Z,34.22
2022-08-17T15:20:24.307Z,34.10
2022-08-17T15:22:54.602Z,34.09
2022-08-17T15:25:23.156Z,34.07
2022-08-17T15:27:51.990Z,34.10
2022-08-17T15:30:20.995Z,33.98
2022-08-17T15:32:54.407Z,33.96
2022-08-17T15:35:27.749Z,34.00
2022-08-17T15:37:57.561Z,33.60
2022-08-17T15:40:25.341Z,33.35
2022-08-17T15:42:53.566Z,33.13
2022-08-17T15:45:25.978Z,32.87
2022-08-17T15:47:54.208Z,32.59
2022-08-17T15:50:21.929Z,32.32
2022-08-17T15:52:55.603Z,32.08
2022-08-17T15:55:24.479Z,31.73
2022-08-17T15:57:52.794Z,31.44
2022-08-17T16:00:23.299Z,31.26
2022-08-17T16:03:44.715Z,31.06
2022-08-17T16:05:40.803Z,30.78
2022-08-17T16:08:10.254Z,30.57
2022-08-17T16:10:38.290Z,30.39
2022-08-17T16:13:05.970Z,30.24
2022-08-17T16:15:51.148Z,30.11
2022-08-17T16:18:30.192Z,30.00
2022-08-17T16:21:18.339Z,29.87
2022-08-17T16:23:46.293Z,29.69
2022-08-17T16:26:14.165Z,29.57
2022-08-17T16:28:42.019Z,29.48
2022-08-17T16:31:09.859Z,29.38
2022-08-17T16:33:39.122Z,29.30
2022-08-17T16:36:08.312Z,29.25
2022-08-17T16:38:37.525Z,29.19
2022-08-17T16:41:06.603Z,29.12
2022-08-17T16:43:35.233Z,29.07
2022-08-17T16:46:03.292Z,29.02
2022-08-17T16:48:31.027Z,28.96
2022-08-17T16:51:04.137Z,28.89
2022-08-17T16:53:32.580Z,28.81
2022-08-17T16:56:01.563Z,28.73
2022-08-17T16:58:29.368Z,28.68
2022-08-17T17:00:58.692Z,28.61
2022-08-17T17:03:28.427Z,28.53
2022-08-17T17:06:06.770Z,28.47
2022-08-17T17:08:42.042Z,28.39
2022-08-17T17:11:17.274Z,28.31
2022-08-17T17:13:49.837Z,28.24
2022-08-17T17:16:23.304Z,28.18
2022-08-17T17:19:04.057Z,28.11
2022-08-17T17:21:39.667Z,28.03
2022-08-17T17:24:14.070Z,27.97
2022-08-17T17:26:54.949Z,27.91
2022-08-17T17:29:48.459Z,27.84
2022-08-17T17:32:21.418Z,27.73
2022-08-17T17:34:54.669Z,27.64
2022-08-17T17:37:31.999Z,27.52
2022-08-17T17:40:06.089Z,27.38
2022-08-17T17:42:34.982Z,27.25
2022-08-17T17:45:11.872Z,27.12
2022-08-17T17:47:39.908Z,26.98
2022-08-17T17:50:08.528Z,26.85
2022-08-17T17:52:47.200Z,26.73
2022-08-17T17:55:29.255Z,26.62
2022-08-17T17:58:06.883Z,26.48
2022-08-17T18:00:39.951Z,26.35
2022-08-17T18:03:22.123Z,26.20
2022-08-17T18:06:07.903Z,26.04
2022-08-17T18:08:49.976Z,25.87
2022-08-17T18:11:36.676Z,25.76
2022-08-17T18:14:16.700Z,25.66
2022-08-17T18:16:45.818Z,25.55
2022-08-17T18:19:15.531Z,25.44
2022-08-17T18:21:48.461Z,25.34
2022-08-17T18:24:29.974Z,25.24
2022-08-17T18:27:00.011Z,25.15
2022-08-17T18:29:37.640Z,25.08
2022-08-17T18:32:28.146Z,25.01
2022-08-17T18:34:59.056Z,24.93
2022-08-17T18:37:44.812Z,24.85
2022-08-17T18:40:34.137Z,24.74
2022-08-17T18:43:25.130Z,24.63
2022-08-17T18:45:56.035Z,24.54
2022-08-17T18:48:28.866Z,24.45
2022-08-17T18:51:01.429Z,24.37
2022-08-17T18:53:37.796Z,24.30
2022-08-17T18:56:24.557Z,24.23
2022-08-17T18:59:02.297Z,24.16
2022-08-17T19:01:41.982Z,24.09
2022-08-17T19:04:34.635Z,24.02
2022-08-17T19:07:12.359Z,23.95
2022-08-17T19:09:46.785Z,23.88
2022-08-17T19:12:27.430Z,23.81
2022-08-17T19:14:57.118Z,23.75
2022-08-17T19:17:32.687Z,23.68
2022-08-17T19:20:06.597Z,23.62
2022-08-17T19:22:56.656Z,23.55
2022-08-17T19:25:31.335Z,23.46
2022-08-17T19:28:06.198Z,23.39
2022-08-17T19:30:54.374Z,23.31
2022-08-17T19:33:22.408Z,23.24
2022-08-17T19:35:58.607Z,23.16
2022-08-17T19:38:39.409Z,23.09
2022-08-17T19:41:15.682Z,23.05
2022-08-17T19:44:07.511Z,22.99
2022-08-17T19:46:48.549Z,22.94
2022-08-17T19:49:33.509Z,22.88
2022-08-17T19:52:26.251Z,22.80
2022-08-17T19:55:00.238Z,22.73
2022-08-17T19:57:37.874Z,22.68
2022-08-17T20:00:11.065Z,22.61
2022-08-17T20:02:46.489Z,22.57
2022-08-17T20:05:19.583Z,22.51
2022-08-17T20:07:54.015Z,22.45
2022-08-17T20:10:30.163Z,22.40
2022-08-17T20:13:06.332Z,22.34
2022-08-17T20:15:38.828Z,22.28
2022-08-17T20:18:17.671Z,22.22
2022-08-17T20:20:55.811Z,22.15
2022-08-17T20:23:51.132Z,22.08
2022-08-17T20:26:27.819Z,22.00
2022-08-17T20:29:19.829Z,21.94
2022-08-17T20:32:17.157Z,21.85
2022-08-17T20:34:47.597Z,21.79
2022-08-17T20:37:32.561Z,21.73
2022-08-17T20:40:21.514Z,21.66
2022-08-17T20:42:49.295Z,21.58
2022-08-17T20:46:04.680Z,21.52
2022-08-17T20:48:40.933Z,21.46
2022-08-17T20:51:21.019Z,21.41
2022-08-17T20:54:06.288Z,21.35
2022-08-17T20:56:59.805Z,21.28
2022-08-17T20:59:56.478Z,21.24
2022-08-17T21:02:27.345Z,21.19
2022-08-17T21:05:27.233Z,21.16
2022-08-17T21:08:12.152Z,21.10
2022-08-17T21:10:43.103Z,21.06
2022-08-17T21:13:45.787Z,21.04
2022-08-17T21:16:31.219Z,21.00
2022-08-17T21:19:09.722Z,20.96
2022-08-17T21:21:49.982Z,20.93
2022-08-17T21:24:30.536Z,20.88
2022-08-17T21:27:07.654Z,20.83
2022-08-17T21:29:52.779Z,20.80
2022-08-17T21:32:29.221Z,20.78
2022-08-17T21:35:24.426Z,20.75
2022-08-17T21:37:56.263Z,20.70
2022-08-17T21:40:26.520Z,20.67
2022-08-17T21:42:57.410Z,20.64
2022-08-17T21:45:30.295Z,20.63
2022-08-17T21:48:13.235Z,20.62
2022-08-17T21:50:43.850Z,20.61
2022-08-17T21:53:22.593Z,20.59
2022-08-17T21:55:51.700Z,20.55
2022-08-17T21:58:30.317Z,20.51
2022-08-17T22:01:21.068Z,20.49
2022-08-17T22:03:57.555Z,20.47
2022-08-17T22:06:29.008Z,20.46
2022-08-17T22:09:04.432Z,20.45
2022-08-17T22:11:46.937Z,20.43
2022-08-17T22:14:17.710Z,20.41
2022-08-17T22:16:45.502Z,20.39
2022-08-17T22:19:13.679Z,20.37
2022-08-17T22:21:41.419Z,20.34
2022-08-17T22:24:21.020Z,20.30
2022-08-17T22:27:02.195Z,20.27
2022-08-17T22:29:57.030Z,20.24
2022-08-17T22:32:34.842Z,20.21
2022-08-17T22:35:34.061Z,20.19
2022-08-17T22:38:30.751Z,20.17
2022-08-17T22:41:35.513Z,20.15
2022-08-17T22:44:23.976Z,20.13
2022-08-17T22:46:59.287Z,20.12
2022-08-17T22:49:30.398Z,20.12
2022-08-17T22:52:05.248Z,20.12
2022-08-17T22:54:51.526Z,20.12
2022-08-17T22:57:40.694Z,20.13
2022-08-17T23:00:30.097Z,20.13
2022-08-17T23:03:08.788Z,20.13
2022-08-17T23:05:37.258Z,20.13
2022-08-17T23:08:05.381Z,20.13
2022-08-17T23:10:35.279Z,20.13
2022-08-17T23:13:03.997Z,20.16
2022-08-17T23:15:33.165Z,20.20
2022-08-17T23:18:04.406Z,20.24
2022-08-17T23:20:33.614Z,20.28
2022-08-17T23:23:03.113Z,20.31
2022-08-17T23:25:33.732Z,20.37
2022-08-17T23:28:03.531Z,20.45
2022-08-17T23:30:33.169Z,20.55
2022-08-17T23:33:04.397Z,20.68
2022-08-17T23:35:38.926Z,20.83
2022-08-17T23:38:09.140Z,20.96
2022-08-17T23:40:37.475Z,21.08
2022-08-17T23:43:05.904Z,21.20
2022-08-17T23:45:43.231Z,21.34
2022-08-17T23:48:11.051Z,21.43
2022-08-17T23:50:38.995Z,21.51
2022-08-17T23:53:08.519Z,21.59
2022-08-17T23:55:36.329Z,21.64
2022-08-17T23:58:05.024Z,21.68
